Time;durP1;ratioP1;P1;durP2;ratioP2;P2;SDS_P1;SDS_P2;PMS_P1;PMS_P2;Temp;Humidity;BMP_temperature;BMP_pressure;BME280_temperature;BME280_humidity;BME280_pressure;Samples;Min_cycle;Max_cycle;Signal;HPM_P1;HPM_P2
2023/06/26 00:02:13;;;;;;;9.90;8.35;;;;;;;25.14;62.89;101245.97;4984159;28;98692;-70
2023/06/26 00:04:40;;;;;;;9.70;7.57;;;;;;;25.26;62.38;101243.03;4984176;28;101440;-70
2023/06/26 00:07:06;;;;;;;10.52;8.40;;;;;;;25.38;62.10;101243.78;4981539;28;97740;-70
2023/06/26 00:09:33;;;;;;;10.90;8.13;;;;;;;25.64;61.39;101233.34;4983654;28;97335;-70
2023/06/26 00:12:00;;;;;;;9.00;7.95;;;;;;;25.47;61.96;101242.94;4980867;28;98979;-70
2023/06/26 00:14:27;;;;;;;9.60;7.80;;;;;;;25.31;62.61;101238.06;4981887;28;98870;-70
2023/06/26 00:16:54;;;;;;;8.82;7.93;;;;;;;25.46;61.95;101241.25;4982805;28;98808;-70
2023/06/26 00:19:20;;;;;;;9.32;7.95;;;;;;;25.29;62.49;101234.63;4983773;28;100168;-70
2023/06/26 00:21:47;;;;;;;9.85;8.30;;;;;;;25.45;62.28;101238.66;4986897;28;99399;-70
2023/06/26 00:24:14;;;;;;;12.02;7.72;;;;;;;25.55;62.12;101226.00;4981310;28;99592;-69
2023/06/26 00:26:40;;;;;;;10.18;8.70;;;;;;;25.47;62.52;101240.22;4981868;28;98670;-70
2023/06/26 00:29:06;;;;;;;14.85;9.75;;;;;;;25.36;62.49;101234.94;4984687;28;97166;-70
2023/06/26 00:31:35;;;;;;;11.18;8.90;;;;;;;25.38;62.46;101236.53;4982525;28;99048;-71
2023/06/26 00:34:01;;;;;;;10.10;8.60;;;;;;;25.30;62.59;101232.78;4985827;28;99165;-71
2023/06/26 00:36:28;;;;;;;15.05;9.20;;;;;;;25.29;62.56;101234.63;4984720;28;97804;-70
2023/06/26 00:38:54;;;;;;;12.15;8.95;;;;;;;25.20;62.64;101238.19;4981283;28;98249;-70
2023/06/26 00:41:20;;;;;;;11.43;8.60;;;;;;;25.65;61.08;101225.09;4980972;28;100915;-70
2023/06/26 00:43:47;;;;;;;9.38;8.35;;;;;;;25.93;59.96;101231.50;4982601;28;99671;-70
2023/06/26 00:46:14;;;;;;;11.10;8.23;;;;;;;25.81;60.46;101229.94;4992195;28;96735;-70
2023/06/26 00:48:44;;;;;;;9.98;8.90;;;;;;;25.87;60.01;101223.94;4992794;28;98589;-70
2023/06/26 00:51:10;;;;;;;11.80;8.75;;;;;;;25.97;59.61;101229.38;4995546;28;99175;-69
2023/06/26 00:53:37;;;;;;;10.52;8.52;;;;;;;25.83;60.11;101224.38;4994713;28;98944;-69
2023/06/26 00:56:04;;;;;;;12.70;9.18;;;;;;;25.67;60.57;101227.63;4994774;28;96820;-69
2023/06/26 00:58:30;;;;;;;12.57;9.15;;;;;;;25.92;59.77;101219.00;4989298;28;97266;-70
2023/06/26 01:00:56;;;;;;;12.98;8.93;;;;;;;25.80;60.08;101218.25;4994847;28;97689;-68
2023/06/26 01:03:24;;;;;;;10.73;8.70;;;;;;;25.76;60.68;101219.53;4989005;28;99195;-69
2023/06/26 01:05:53;;;;;;;10.90;9.27;;;;;;;25.66;62.05;101210.56;4983272;28;97091;-70
2023/06/26 01:08:21;;;;;;;10.85;9.65;;;;;;;25.76;62.01;101214.13;4983111;28;96979;-71
2023/06/26 01:10:48;;;;;;;11.20;9.27;;;;;;;25.82;61.46;101206.44;4984570;28;98571;-69
2023/06/26 01:13:15;;;;;;;11.70;8.85;;;;;;;25.71;61.45;101208.28;4979445;28;99272;-69
2023/06/26 01:15:42;;;;;;;10.50;9.38;;;;;;;25.55;62.11;101216.03;4979487;28;98932;-69
2023/06/26 01:18:09;;;;;;;11.63;8.20;;;;;;;25.89;61.50;101207.56;4981549;28;97724;-68
2023/06/26 01:20:39;;;;;;;15.68;9.30;;;;;;;25.77;61.74;101213.13;4985816;28;97862;-69
2023/06/26 01:23:16;;;;;;;15.55;8.77;;;;;;;25.75;62.22;101203.44;4980737;28;98806;-70
2023/06/26 01:25:57;;;;;;;11.27;8.85;;;;;;;25.67;62.24;101209.53;4983061;28;96857;-70
2023/06/26 01:28:25;;;;;;;11.07;9.43;;;;;;;25.68;62.18;101203.13;4981544;28;98832;-69
2023/06/26 01:30:52;;;;;;;10.95;8.90;;;;;;;25.82;61.58;101198.31;4979904;28;102102;-69
2023/06/26 01:33:19;;;;;;;12.25;9.48;;;;;;;25.78;62.04;101195.91;4979353;28;99324;-69
2023/06/26 01:35:46;;;;;;;11.10;8.80;;;;;;;25.50;62.14;101195.81;4982262;28;98349;-69
2023/06/26 01:38:14;;;;;;;10.20;9.20;;;;;;;25.49;60.90;101189.53;4983189;28;98420;-68
2023/06/26 01:40:40;;;;;;;10.90;8.88;;;;;;;25.64;60.10;101193.59;4980876;28;99261;-68
2023/06/26 01:43:09;;;;;;;10.13;9.05;;;;;;;25.85;59.99;101184.50;4980162;28;99029;-68
2023/06/26 01:45:38;;;;;;;11.60;8.57;;;;;;;25.75;60.37;101190.75;4981193;28;97739;-68
2023/06/26 01:48:07;;;;;;;12.95;8.65;;;;;;;25.87;60.30;101180.63;4979137;28;99065;-69
2023/06/26 01:50:34;;;;;;;12.85;9.68;;;;;;;25.94;60.13;101183.63;4980792;28;99081;-69
2023/06/26 01:53:07;;;;;;;14.00;9.10;;;;;;;25.85;60.70;101176.38;4980089;28;99412;-67
2023/06/26 01:55:41;;;;;;;10.25;8.35;;;;;;;25.66;61.25;101179.94;4982821;28;99101;-69
2023/06/26 01:58:09;;;;;;;11.60;9.77;;;;;;;25.80;61.02;101179.50;4981699;28;98869;-69
2023/06/26 02:00:38;;;;;;;10.77;9.18;;;;;;;25.68;60.61;101176.06;4981371;28;101646;-68
2023/06/26 02:03:05;;;;;;;10.90;8.75;;;;;;;25.67;60.83;101176.22;4978798;28;98839;-70
2023/06/26 02:05:32;;;;;;;11.52;8.77;;;;;;;25.73;60.76;101179.19;4980445;28;96929;-70
2023/06/26 02:07:58;;;;;;;12.05;9.00;;;;;;;25.63;61.14;101180.19;4982362;28;97772;-69
2023/06/26 02:10:25;;;;;;;10.70;9.00;;;;;;;25.74;60.55;101172.81;4982626;28;98917;-69
2023/06/26 02:12:51;;;;;;;13.52;9.35;;;;;;;25.64;60.38;101184.63;4979022;28;99056;-69
2023/06/26 02:15:17;;;;;;;11.85;9.15;;;;;;;25.60;61.02;101173.22;4981293;28;100563;-69
2023/06/26 02:17:47;;;;;;;14.13;9.77;;;;;;;25.45;62.33;101174.59;4979741;28;98626;-69
2023/06/26 02:20:14;;;;;;;11.25;9.82;;;;;;;25.60;62.26;101173.22;4983797;28;100119;-70
2023/06/26 02:22:40;;;;;;;12.77;10.02;;;;;;;25.50;63.12;101185.84;4980424;28;97563;-70
2023/06/26 02:25:07;;;;;;;11.23;8.80;;;;;;;25.45;63.64;101177.31;4981381;28;97284;-69
2023/06/26 02:27:33;;;;;;;10.68;8.93;;;;;;;25.48;63.14;101168.91;4981211;28;97328;-70
2023/06/26 02:30:00;;;;;;;9.35;7.95;;;;;;;25.68;62.15;101173.38;4978679;28;99089;-69
2023/06/26 02:32:26;;;;;;;11.98;10.23;;;;;;;25.65;61.59;101179.09;4980330;28;98825;-70
2023/06/26 02:34:54;;;;;;;14.73;10.10;;;;;;;25.54;61.45;101176.44;4984550;28;98576;-70
2023/06/26 02:37:20;;;;;;;11.48;9.27;;;;;;;25.75;60.65;101173.66;4978457;28;97582;-70
2023/06/26 02:39:47;;;;;;;10.35;9.25;;;;;;;25.73;60.90;101171.09;4978357;28;101306;-70
2023/06/26 02:42:13;;;;;;;14.15;9.52;;;;;;;25.64;60.85;101173.81;4980188;28;99016;-70
2023/06/26 02:44:39;;;;;;;13.15;10.25;;;;;;;25.59;61.07;101174.22;4984943;28;97428;-69
2023/06/26 02:47:06;;;;;;;11.85;9.35;;;;;;;25.48;61.24;101168.91;4987730;28;97722;-70
2023/06/26 02:49:32;;;;;;;11.02;9.27;;;;;;;25.26;62.63;101171.84;4988075;28;98931;-69
2023/06/26 02:52:00;;;;;;;12.27;9.77;;;;;;;25.41;62.30;101168.59;4997997;28;99069;-69
2023/06/26 02:54:26;;;;;;;13.38;9.82;;;;;;;25.37;62.61;101166.31;4984495;28;96835;-69
2023/06/26 02:56:53;;;;;;;11.63;9.07;;;;;;;25.53;61.99;101169.34;4992414;28;96966;-68
2023/06/26 02:59:19;;;;;;;11.07;8.73;;;;;;;25.60;61.04;101170.50;4991718;28;99033;-69
2023/06/26 03:01:45;;;;;;;13.00;9.52;;;;;;;25.57;61.00;101159.09;4995746;28;98817;-69
2023/06/26 03:04:12;;;;;;;13.65;10.35;;;;;;;25.56;61.13;101160.09;4988959;28;96897;-71
2023/06/26 03:06:38;;;;;;;12.75;10.60;;;;;;;25.34;61.95;101155.75;4980379;28;96964;-70
2023/06/26 03:09:06;;;;;;;13.35;10.07;;;;;;;25.21;62.47;101155.16;4978720;28;99627;-69
2023/06/26 03:11:32;;;;;;;11.55;9.82;;;;;;;25.09;63.22;101148.16;4977522;28;99005;-69
2023/06/26 03:13:58;;;;;;;12.02;10.23;;;;;;;25.30;62.67;101146.22;4982542;28;100869;-69
2023/06/26 03:16:25;;;;;;;12.00;9.85;;;;;;;25.25;62.27;101143.97;4985358;28;98091;-71
2023/06/26 03:18:51;;;;;;;16.60;11.68;;;;;;;25.48;60.89;101144.53;4981502;28;101985;-70
2023/06/26 03:21:17;;;;;;;14.13;11.75;;;;;;;25.27;62.30;101151.94;4986196;28;98740;-69
2023/06/26 03:23:44;;;;;;;14.85;10.75;;;;;;;25.18;62.24;101150.91;4981715;28;98583;-70
2023/06/26 03:26:14;;;;;;;12.75;10.48;;;;;;;25.12;63.01;101145.19;4984165;28;97117;-70
2023/06/26 03:28:40;;;;;;;13.02;10.13;;;;;;;25.16;63.35;101138.50;4980703;28;99259;-69
2023/06/26 03:31:07;;;;;;;12.82;10.32;;;;;;;25.31;63.06;101150.66;4986132;28;98896;-69
2023/06/26 03:33:33;;;;;;;12.23;9.30;;;;;;;25.37;62.38;101142.84;4981308;28;97543;-70
2023/06/26 03:36:00;;;;;;;12.10;10.13;;;;;;;25.70;60.81;101136.19;4981779;28;97122;-69
2023/06/26 03:38:26;;;;;;;14.55;10.40;;;;;;;25.55;60.67;101139.44;4980549;28;98954;-69
2023/06/26 03:40:53;;;;;;;13.85;10.75;;;;;;;25.73;59.22;101135.91;4979939;28;99014;-70
2023/06/26 03:43:20;;;;;;;13.75;10.82;;;;;;;25.70;58.37;101138.91;4979751;28;97763;-69
2023/06/26 03:45:47;;;;;;;14.20;10.52;;;;;;;25.66;58.15;101136.63;4982173;28;97706;-69
2023/06/26 03:48:14;;;;;;;13.00;10.73;;;;;;;25.63;57.95;101134.19;4980206;28;100508;-69
2023/06/26 03:50:40;;;;;;;14.02;10.43;;;;;;;25.51;58.24;101132.59;4982490;28;99042;-70
2023/06/26 03:53:06;;;;;;;12.63;11.25;;;;;;;25.77;57.91;101131.94;4979738;28;100222;-70
2023/06/26 03:55:34;;;;;;;13.23;10.70;;;;;;;25.76;57.25;101132.06;4979652;28;98727;-69
2023/06/26 03:58:00;;;;;;;13.00;10.77;;;;;;;25.88;57.11;101132.75;4979328;28;98982;-68
2023/06/26 04:00:28;;;;;;;12.93;10.65;;;;;;;25.76;57.85;101137.47;4980429;28;99007;-69
2023/06/26 04:02:55;;;;;;;12.23;10.25;;;;;;;25.74;58.07;101136.75;4979242;28;101407;-69
2023/06/26 04:05:21;;;;;;;11.55;10.35;;;;;;;25.90;57.76;101137.06;4981856;28;98795;-69
2023/06/26 04:07:50;;;;;;;12.75;10.13;;;;;;;26.07;57.07;101135.44;4979797;28;99386;-69
2023/06/26 04:10:17;;;;;;;12.20;10.05;;;;;;;26.10;56.67;101124.34;4979917;28;99535;-69
2023/06/26 04:12:43;;;;;;;11.27;9.95;;;;;;;26.31;55.64;101133.19;4981702;28;98601;-69
2023/06/26 04:15:10;;;;;;;14.43;10.18;;;;;;;26.39;55.36;101129.69;4980164;28;99541;-70
2023/06/26 04:17:38;;;;;;;12.10;10.18;;;;;;;26.40;54.96;101129.56;4980233;28;98978;-69
2023/06/26 04:20:06;;;;;;;11.23;9.57;;;;;;;26.38;55.02;101126.16;4983115;28;98972;-69
2023/06/26 04:22:33;;;;;;;11.23;9.80;;;;;;;26.40;55.01;101124.16;4981126;28;99375;-69
2023/06/26 04:25:03;;;;;;;13.50;10.70;;;;;;;26.33;54.67;101124.88;4981318;28;98748;-70
2023/06/26 04:27:30;;;;;;;13.35;9.88;;;;;;;26.44;54.72;101127.44;4978344;28;100780;-70
2023/06/26 04:29:56;;;;;;;12.77;11.30;;;;;;;26.38;54.35;101126.16;4976580;28;99067;-69
2023/06/26 04:32:23;;;;;;;13.05;11.10;;;;;;;26.51;53.89;101123.13;4978999;28;98889;-70
2023/06/26 04:34:51;;;;;;;12.65;10.55;;;;;;;26.35;53.81;101123.75;4979844;28;97926;-70
2023/06/26 04:37:17;;;;;;;13.52;11.05;;;;;;;26.26;54.26;101124.59;4979607;28;100994;-69
2023/06/26 04:39:43;;;;;;;12.60;9.90;;;;;;;26.25;54.69;101124.78;4980071;28;100632;-71
2023/06/26 04:42:11;;;;;;;14.60;10.38;;;;;;;26.38;54.23;101126.16;4979059;28;97010;-68
2023/06/26 04:44:38;;;;;;;15.85;10.15;;;;;;;26.37;53.78;101123.59;4982297;28;97192;-68
2023/06/26 04:47:05;;;;;;;11.27;10.13;;;;;;;26.45;53.53;101119.13;4992325;28;98808;-69
2023/06/26 04:49:31;;;;;;;11.75;10.52;;;;;;;26.31;53.94;101116.06;4991967;28;99007;-70
2023/06/26 04:52:00;;;;;;;12.52;10.57;;;;;;;26.34;54.00;101115.75;4994279;28;97011;-70
2023/06/26 04:54:28;;;;;;;12.00;10.65;;;;;;;26.25;53.88;101117.50;4991673;28;99249;-69
2023/06/26 04:56:54;;;;;;;12.45;9.88;;;;;;;26.33;53.40;101114.91;4988409;28;100117;-70
2023/06/26 04:59:20;;;;;;;11.60;10.38;;;;;;;26.58;53.01;101116.94;4991176;28;98871;-71
2023/06/26 05:01:47;;;;;;;13.50;9.88;;;;;;;26.57;52.75;101117.97;4989946;28;97238;-70
2023/06/26 05:04:14;;;;;;;10.80;9.70;;;;;;;27.01;51.91;101123.63;4984041;28;98077;-69
2023/06/26 05:06:40;;;;;;;18.63;10.80;;;;;;;27.22;51.09;101118.81;4978977;28;99025;-70
2023/06/26 05:09:08;;;;;;;13.73;10.00;;;;;;;27.38;50.59;101118.09;4978644;28;98617;-69
2023/06/26 05:11:34;;;;;;;14.50;10.00;;;;;;;27.90;49.65;101112.84;4982950;28;98697;-69
2023/06/26 05:14:01;;;;;;;19.42;11.00;;;;;;;27.82;49.29;101110.94;4978452;28;98682;-69
2023/06/26 05:16:27;;;;;;;14.25;10.35;;;;;;;28.09;48.92;101113.50;4979143;28;101973;-69
2023/06/26 05:18:54;;;;;;;14.50;9.40;;;;;;;27.76;49.05;101111.56;4977555;28;102662;-70
2023/06/26 05:21:21;;;;;;;11.48;10.27;;;;;;;27.74;48.87;101114.44;4981158;28;97301;-69
2023/06/26 05:23:48;;;;;;;10.57;9.27;;;;;;;27.76;48.70;101106.97;4978121;28;97770;-69
2023/06/26 05:26:16;;;;;;;12.10;9.35;;;;;;;27.64;49.19;101104.66;4980067;28;99510;-71
2023/06/26 05:28:48;;;;;;;26.27;10.68;;;;;;;27.57;49.26;101101.72;4980121;28;101593;-70
2023/06/26 05:31:14;;;;;;;10.50;8.93;;;;;;;27.58;49.50;101097.13;4982709;28;97780;-70
2023/06/26 05:33:44;;;;;;;14.32;10.27;;;;;;;27.55;49.48;101092.88;4981492;28;97042;-71
2023/06/26 05:36:13;;;;;;;12.82;9.73;;;;;;;27.36;50.11;101096.56;4983313;28;99144;-69
2023/06/26 05:38:40;;;;;;;10.80;9.40;;;;;;;27.27;50.50;101093.91;4985912;28;99083;-70
2023/06/26 05:41:06;;;;;;;13.52;9.85;;;;;;;27.23;50.69;101090.69;4984852;28;99329;-71
2023/06/26 05:43:34;;;;;;;13.55;10.32;;;;;;;27.29;50.84;101090.06;4983486;28;99783;-70
2023/06/26 05:46:00;;;;;;;11.07;9.82;;;;;;;27.37;50.86;101086.59;4988230;28;97686;-71
2023/06/26 05:48:27;;;;;;;16.80;9.55;;;;;;;27.44;50.36;101084.09;4986205;28;99083;-72
2023/06/26 05:50:54;;;;;;;10.93;9.27;;;;;;;27.71;50.01;101075.88;4982880;28;96804;-70
2023/06/26 05:53:20;;;;;;;11.68;9.45;;;;;;;27.77;49.00;101083.38;4992454;28;96782;-71
2023/06/26 05:55:48;;;;;;;14.38;9.90;;;;;;;28.23;47.49;101084.09;4992427;28;99057;-71
2023/06/26 05:58:15;;;;;;;12.13;10.20;;;;;;;28.19;47.56;101071.84;4993346;28;99929;-71
2023/06/26 06:00:44;;;;;;;11.93;10.02;;;;;;;28.43;46.46;101070.13;4990895;28;99259;-71
2023/06/26 06:03:11;;;;;;;14.75;9.88;;;;;;;28.70;46.17;101074.50;4986685;28;97789;-70
2023/06/26 06:05:37;;;;;;;13.32;9.82;;;;;;;28.80;45.84;101069.81;4988096;28;97546;-72
2023/06/26 06:08:04;;;;;;;13.15;9.68;;;;;;;28.70;46.19;101074.50;4989711;28;98915;-70
2023/06/26 06:10:30;;;;;;;15.98;9.20;;;;;;;28.93;45.16;101056.59;4973403;28;98553;-70
2023/06/26 06:12:57;;;;;;;13.00;8.80;;;;;;;29.13;44.85;101064.47;4973826;28;98689;-70
2023/06/26 06:15:23;;;;;;;17.75;8.00;;;;;;;29.25;44.11;101063.13;4977791;28;99717;-66
2023/06/26 06:17:51;;;;;;;12.32;8.40;;;;;;;29.39;43.93;101054.34;4973837;28;100645;-66
2023/06/26 06:20:19;;;;;;;13.55;8.10;;;;;;;29.36;44.29;101060.09;4980087;28;97137;-67
2023/06/26 06:22:45;;;;;;;9.05;7.32;;;;;;;29.50;42.64;101053.16;4973557;28;98839;-66
2023/06/26 06:25:12;;;;;;;11.23;7.70;;;;;;;29.53;42.17;101056.41;4977927;28;99354;-66
2023/06/26 06:27:38;;;;;;;9.07;6.55;;;;;;;29.60;41.10;101056.56;4979953;28;98815;-65
2023/06/26 06:30:05;;;;;;;10.90;6.10;;;;;;;29.77;40.52;101060.13;4971982;28;98721;-64
2023/06/26 06:32:31;;;;;;;8.30;6.18;;;;;;;29.22;41.19;101068.91;4976226;28;98841;-65
2023/06/26 06:34:59;;;;;;;8.52;6.85;;;;;;;29.50;41.08;101053.16;4981339;28;99352;-65
2023/06/26 06:37:26;;;;;;;12.68;6.50;;;;;;;29.91;40.48;101052.13;4978126;28;98960;-67
2023/06/26 06:39:52;;;;;;;9.40;6.00;;;;;;;30.08;39.54;101052.97;4983279;28;97738;-66
2023/06/26 06:42:19;;;;;;;9.60;5.75;;;;;;;30.23;39.24;101053.97;4989657;28;97897;-66
2023/06/26 06:44:45;;;;;;;14.43;6.22;;;;;;;30.17;38.94;101056.53;4986600;28;99511;-66
2023/06/26 06:47:11;;;;;;;9.90;5.72;;;;;;;30.38;38.30;101057.66;4995726;28;97744;-65
2023/06/26 06:49:37;;;;;;;8.15;6.00;;;;;;;30.33;38.53;101051.88;4987509;28;99312;-64
2023/06/26 06:52:06;;;;;;;7.22;5.40;;;;;;;30.64;37.86;101053.84;4987367;28;96899;-66
2023/06/26 06:54:32;;;;;;;6.50;5.47;;;;;;;30.92;37.31;101051.50;4994122;28;102031;-65
2023/06/26 06:56:59;;;;;;;16.15;6.07;;;;;;;30.89;37.06;101044.53;4991768;28;98835;-65
2023/06/26 06:59:25;;;;;;;12.65;5.82;;;;;;;30.89;37.01;101045.38;4990004;28;97011;-65
2023/06/26 07:01:51;;;;;;;14.38;5.72;;;;;;;31.16;37.51;101046.78;4990707;28;96923;-65
2023/06/26 07:04:18;;;;;;;9.07;5.88;;;;;;;30.85;37.05;101043.19;4998847;28;98906;-65
2023/06/26 07:06:44;;;;;;;5.18;4.68;;;;;;;30.74;37.50;101046.28;4992137;28;101869;-65
2023/06/26 07:09:12;;;;;;;6.60;5.57;;;;;;;30.83;37.35;101039.78;4983422;28;98508;-65
2023/06/26 07:11:38;;;;;;;5.45;4.90;;;;;;;31.10;36.50;101036.59;4983930;28;97133;-65
2023/06/26 07:14:05;;;;;;;7.80;5.35;;;;;;;30.88;37.27;101042.81;4987137;28;98009;-65
2023/06/26 07:16:31;;;;;;;7.80;5.05;;;;;;;31.01;37.38;101037.63;4988678;28;99706;-64
2023/06/26 07:18:57;;;;;;;9.90;5.40;;;;;;;31.22;37.51;101034.28;4991112;28;97725;-64
2023/06/26 07:21:23;;;;;;;6.72;5.03;;;;;;;31.12;36.42;101041.84;4991254;28;96930;-65
2023/06/26 07:23:50;;;;;;;5.47;4.97;;;;;;;31.29;37.20;101035.25;4986825;28;99330;-64
2023/06/26 07:26:17;;;;;;;7.50;5.25;;;;;;;31.34;36.40;101035.53;4989686;28;100079;-70
2023/06/26 07:28:44;;;;;;;6.18;5.03;;;;;;;31.42;35.90;101026.44;4994041;28;96944;-70
2023/06/26 07:31:10;;;;;;;7.25;5.07;;;;;;;31.53;35.86;101026.00;4987796;28;98672;-71
2023/06/26 07:33:36;;;;;;;10.38;5.32;;;;;;;31.42;35.88;101027.31;4993853;28;97773;-69
2023/06/26 07:36:03;;;;;;;10.60;4.85;;;;;;;31.58;35.89;101027.16;4992334;28;97578;-69
2023/06/26 07:38:29;;;;;;;9.02;5.05;;;;;;;31.89;35.46;101032.53;4996853;28;96784;-70
2023/06/26 07:40:55;;;;;;;17.52;5.55;;;;;;;31.93;35.31;101022.94;4996735;28;97283;-71
2023/06/26 07:43:23;;;;;;;6.30;4.60;;;;;;;31.87;35.37;101017.38;4985691;28;102437;-70
2023/06/26 07:45:51;;;;;;;5.35;4.60;;;;;;;31.94;34.23;101016.44;4985685;28;98858;-70
2023/06/26 07:48:17;;;;;;;6.95;4.50;;;;;;;32.05;34.73;101017.84;4994861;28;96671;-70
2023/06/26 07:50:43;;;;;;;8.45;4.93;;;;;;;32.17;34.30;101010.91;4991430;28;99524;-70
2023/06/26 07:53:10;;;;;;;6.40;4.22;;;;;;;32.13;33.47;101011.44;4997175;28;101190;-70
2023/06/26 07:55:36;;;;;;;5.88;4.18;;;;;;;32.03;33.06;101011.75;4992069;28;97730;-70
2023/06/26 07:58:02;;;;;;;4.90;3.85;;;;;;;31.84;33.44;101006.78;4993982;28;97414;-69
2023/06/26 08:00:30;;;;;;;5.03;4.13;;;;;;;32.12;33.19;101007.84;4986878;28;99164;-70
2023/06/26 08:02:56;;;;;;;4.85;4.32;;;;;;;32.40;33.10;101003.47;4978111;28;97918;-71
2023/06/26 08:05:22;;;;;;;7.63;5.03;;;;;;;32.46;33.09;101007.31;4984660;28;97634;-69
2023/06/26 08:07:49;;;;;;;6.82;4.95;;;;;;;32.42;32.99;101004.13;4993941;28;97383;-69
2023/06/26 08:10:15;;;;;;;5.88;4.15;;;;;;;32.62;32.64;100995.31;4989111;28;97392;-71
2023/06/26 08:12:42;;;;;;;5.50;4.07;;;;;;;32.65;32.49;100997.66;4993497;28;99272;-69
2023/06/26 08:15:09;;;;;;;10.82;4.97;;;;;;;33.00;32.62;100994.13;4991404;28;97706;-70
2023/06/26 08:17:37;;;;;;;6.32;4.35;;;;;;;32.83;31.07;100988.03;4989057;28;96807;-70
2023/06/26 08:20:05;;;;;;;30.63;4.85;;;;;;;33.04;31.49;100984.47;4985682;28;96942;-70
2023/06/26 08:22:31;;;;;;;5.30;3.55;;;;;;;32.81;30.69;100990.13;4993407;28;99032;-72
2023/06/26 08:24:57;;;;;;;9.57;4.03;;;;;;;32.66;31.09;100989.28;4987635;28;98996;-70
2023/06/26 08:27:24;;;;;;;13.02;4.15;;;;;;;32.49;30.52;100997.91;4992342;28;97113;-69
2023/06/26 08:29:50;;;;;;;6.40;4.60;;;;;;;32.50;31.24;100991.38;4992936;28;97222;-70
2023/06/26 08:32:16;;;;;;;12.23;3.83;;;;;;;32.77;31.15;100993.41;4991315;28;99091;-70
2023/06/26 08:34:44;;;;;;;7.97;4.00;;;;;;;32.96;30.99;100990.06;4991692;28;98966;-70
2023/06/26 08:37:10;;;;;;;8.65;4.15;;;;;;;32.62;31.84;100985.22;4987545;28;97104;-70
2023/06/26 08:39:36;;;;;;;4.35;3.50;;;;;;;32.68;30.66;100976.28;4983169;28;97539;-70
2023/06/26 08:42:03;;;;;;;7.57;4.65;;;;;;;32.84;30.89;100981.50;4983961;28;99527;-68
2023/06/26 08:44:29;;;;;;;10.73;4.63;;;;;;;32.55;30.80;100978.84;4988882;28;97562;-69
2023/06/26 08:46:56;;;;;;;6.85;3.90;;;;;;;32.55;30.27;100970.63;4984770;28;98948;-70
2023/06/26 08:49:29;;;;;;;5.45;3.60;;;;;;;32.35;30.76;100984.06;4987188;28;96964;-71
2023/06/26 08:52:02;;;;;;;9.02;4.80;;;;;;;32.49;30.88;100974.13;4984223;28;97806;-69
2023/06/26 08:54:35;;;;;;;6.78;3.80;;;;;;;32.87;30.28;100971.22;4990896;28;99172;-70
2023/06/26 08:57:03;;;;;;;8.02;4.05;;;;;;;32.57;30.17;100976.72;4990292;28;98170;-69
2023/06/26 08:59:29;;;;;;;6.05;4.07;;;;;;;32.48;30.25;100966.97;4983264;28;97613;-70
2023/06/26 09:01:56;;;;;;;5.32;3.80;;;;;;;32.40;30.23;100958.84;4983056;28;99082;-69
2023/06/26 09:04:22;;;;;;;5.00;4.00;;;;;;;32.65;30.17;100962.94;4981101;28;99379;-69
2023/06/26 09:06:48;;;;;;;4.65;3.70;;;;;;;32.98;30.25;100951.53;4990262;28;96955;-70
2023/06/26 09:09:16;;;;;;;4.13;3.72;;;;;;;33.02;29.60;100952.84;4985509;28;98212;-70
2023/06/26 09:11:42;;;;;;;4.20;3.80;;;;;;;32.85;29.92;100955.00;4993539;28;99205;-71
2023/06/26 09:14:10;;;;;;;4.75;3.83;;;;;;;32.94;29.85;100951.09;4988954;28;98824;-69
2023/06/26 09:16:40;;;;;;;5.70;3.70;;;;;;;32.68;29.02;100951.66;4984363;28;96809;-70
2023/06/26 09:19:11;;;;;;;4.32;3.53;;;;;;;32.71;29.22;100945.78;4985818;28;98195;-70
2023/06/26 09:21:37;;;;;;;7.47;3.78;;;;;;;33.10;29.15;100941.75;4987089;28;97856;-70
2023/06/26 09:24:04;;;;;;;3.35;3.05;;;;;;;33.04;28.53;100943.41;4989139;28;98928;-70
2023/06/26 09:26:32;;;;;;;3.80;3.40;;;;;;;32.96;28.48;100929.84;4987038;28;97388;-69
2023/06/26 09:28:59;;;;;;;4.93;3.83;;;;;;;33.01;28.70;100940.22;4990858;28;96895;-70
2023/06/26 09:31:25;;;;;;;3.45;3.17;;;;;;;33.04;28.87;100937.06;4983773;28;99106;-70
2023/06/26 09:33:58;;;;;;;3.55;3.20;;;;;;;32.78;29.05;100930.28;4979416;28;98902;-70
2023/06/26 09:36:24;;;;;;;4.88;3.15;;;;;;;32.98;30.03;100940.59;4982861;28;97348;-70
2023/06/26 09:38:51;;;;;;;3.72;3.20;;;;;;;32.95;28.44;100933.59;4985542;28;97235;-70
2023/06/26 09:41:18;;;;;;;4.00;3.15;;;;;;;32.99;28.81;100928.59;4984943;28;101186;-70
2023/06/26 09:43:50;;;;;;;14.77;3.40;;;;;;;32.99;27.78;100926.72;4988590;28;99207;-70
2023/06/26 09:46:17;;;;;;;3.25;2.92;;;;;;;33.10;28.29;100930.81;4988664;28;96776;-69
2023/06/26 09:48:43;;;;;;;3.80;2.95;;;;;;;33.27;28.15;100920.47;4988166;28;97963;-70
2023/06/26 09:51:10;;;;;;;5.40;3.00;;;;;;;33.10;28.51;100917.97;4986715;28;101518;-69
2023/06/26 09:53:37;;;;;;;3.05;2.75;;;;;;;33.29;28.01;100919.22;4984803;28;98537;-70
2023/06/26 09:56:06;;;;;;;3.83;2.85;;;;;;;33.26;28.03;100916.88;4987838;28;97867;-70
2023/06/26 09:58:34;;;;;;;4.38;2.88;;;;;;;33.14;28.02;100912.97;4986836;28;97994;-70
2023/06/26 10:01:02;;;;;;;3.05;2.75;;;;;;;33.04;28.74;100904.22;4979032;28;98931;-70
2023/06/26 10:03:28;;;;;;;4.85;3.00;;;;;;;33.59;28.09;100908.94;4986788;28;101417;-71
2023/06/26 10:05:55;;;;;;;4.57;3.15;;;;;;;33.45;28.18;100902.50;4982534;28;97310;-69
2023/06/26 10:08:22;;;;;;;5.97;3.10;;;;;;;33.47;28.61;100902.31;4987614;28;97042;-69
2023/06/26 10:10:50;;;;;;;5.72;3.30;;;;;;;33.48;28.89;100901.25;4976873;28;98924;-71
2023/06/26 10:13:22;;;;;;;3.70;3.40;;;;;;;33.27;28.76;100895.84;4984986;28;97753;-70
2023/06/26 10:15:51;;;;;;;3.58;3.28;;;;;;;33.21;29.23;100897.47;4986786;28;96912;-69
2023/06/26 10:18:22;;;;;;;5.30;3.28;;;;;;;33.14;29.61;100899.28;4991225;28;97135;-70
2023/06/26 10:20:50;;;;;;;3.58;3.28;;;;;;;33.48;28.80;100888.41;4984283;28;99641;-70
2023/06/26 10:23:20;;;;;;;4.00;3.70;;;;;;;33.63;29.24;100891.03;4987089;28;98770;-70
2023/06/26 10:25:51;;;;;;;4.88;3.60;;;;;;;33.57;29.56;100881.72;4980639;28;97030;-70
2023/06/26 10:28:20;;;;;;;3.97;3.67;;;;;;;33.20;29.80;100879.34;4990762;28;99008;-70
2023/06/26 10:30:51;;;;;;;3.83;3.53;;;;;;;33.71;29.83;100877.22;4984880;28;99324;-70
2023/06/26 10:33:18;;;;;;;3.38;3.10;;;;;;;33.82;29.10;100870.28;4987770;28;97845;-68
2023/06/26 10:35:46;;;;;;;3.05;2.85;;;;;;;33.47;29.00;100870.28;4990014;28;97845;-69
2023/06/26 10:38:12;;;;;;;3.50;3.20;;;;;;;33.50;29.14;100863.53;4988912;28;97150;-69
2023/06/26 10:40:44;;;;;;;5.18;3.55;;;;;;;33.42;29.16;100864.53;4980670;28;99078;-70
2023/06/26 10:43:12;;;;;;;8.30;3.67;;;;;;;33.30;29.33;100857.09;4984713;28;102206;-69
2023/06/26 10:45:44;;;;;;;3.50;3.20;;;;;;;33.33;29.02;100856.69;4988142;28;97439;-70
2023/06/26 10:48:11;;;;;;;3.55;3.20;;;;;;;33.71;28.95;100848.97;4988276;28;97252;-70
2023/06/26 10:50:37;;;;;;;3.63;3.33;;;;;;;33.90;29.13;100849.06;4983514;28;100553;-70
2023/06/26 10:53:14;;;;;;;3.38;3.08;;;;;;;33.86;29.45;100852.41;4982561;28;99460;-69
2023/06/26 10:55:49;;;;;;;7.65;3.78;;;;;;;33.76;29.49;100850.03;4990139;28;96849;-70
2023/06/26 10:58:31;;;;;;;4.22;3.35;;;;;;;33.64;29.18;100843.41;4986772;28;97487;-70
2023/06/26 11:01:23;;;;;;;4.90;3.70;;;;;;;33.94;29.36;100842.09;4983804;28;98934;-69
2023/06/26 11:04:05;;;;;;;3.80;3.40;;;;;;;34.11;28.32;100850.00;4987000;28;97571;-70
2023/06/26 11:06:32;;;;;;;3.90;3.53;;;;;;;34.31;28.05;100839.97;4988133;28;96973;-68
2023/06/26 11:09:07;;;;;;;4.13;3.60;;;;;;;34.49;27.65;100831.13;4984610;28;97096;-69
2023/06/26 11:11:58;;;;;;;5.90;3.45;;;;;;;34.69;28.16;100821.88;4985978;28;99552;-69
2023/06/26 11:14:26;;;;;;;4.70;3.20;;;;;;;34.79;27.53;100824.22;4991129;28;98880;-69
2023/06/26 11:16:53;;;;;;;4.00;3.60;;;;;;;34.95;27.77;100829.31;4985110;28;97749;-69
2023/06/26 11:19:21;;;;;;;4.07;3.28;;;;;;;35.00;27.14;100812.19;4986288;28;97311;-69